Hornsey, United Kingdom
Current Conditions -  °F | °C
As of 4:50 AM on Friday 31 Oct 2014 (Local Time) from EGLC Reporting Station
Clear Clear  
Wind Chill: 59°   Ceiling: Unl
Heat Index: 59°   Visibility: 4mi
Dew Point: 55°   Wind: 2mph
Humidity: 88%   Direction: NA
Pressure: 30.06"   Gusts: NA
Location:  51.58°N, 0.1°W
Report Text: EGLC 310450Z AUTO VRB02KT 7000 NCD 15/13 Q1018
Loading
Personal Weather Stations






























Interactive Weather Map
Tropical Storm Tracking
New forecast layout! Learn more

10-Day Weather Forecast

Advertisements
Track Severe Weather on mobile